Time;durP1;ratioP1;P1;durP2;ratioP2;P2;SDS_P1;SDS_P2;PMS_P1;PMS_P2;Temp;Humidity;BMP_temperature;BMP_pressure;BME280_temperature;BME280_humidity;BME280_pressure;Samples;Min_cycle;Max_cycle;Signal;HPM_P1;HPM_P2
2021/06/20 00:01:05;;;;;;;20.15;10.20;;;20.90;99.90;;;;;;5054610;28;20504;-81
2021/06/20 00:03:31;;;;;;;26.83;9.63;;;21.00;99.90;;;;;;5054279;28;20098;-80
2021/06/20 00:06:04;;;;;;;28.98;10.02;;;20.90;99.90;;;;;;5054135;28;20049;-81
2021/06/20 00:08:30;;;;;;;26.05;9.57;;;20.90;99.90;;;;;;5055062;28;20053;-81
2021/06/20 00:10:57;;;;;;;19.17;8.60;;;21.00;99.90;;;;;;5054038;28;20397;-80
2021/06/20 00:13:23;;;;;;;30.85;9.45;;;21.00;99.90;;;;;;5053916;28;20041;-80
2021/06/20 00:15:50;;;;;;;28.85;9.50;;;21.00;99.90;;;;;;5054133;28;20132;-81
2021/06/20 00:18:16;;;;;;;26.55;9.80;;;21.00;99.90;;;;;;5054430;28;20074;-81
2021/06/20 00:20:45;;;;;;;22.27;10.13;;;20.90;99.90;;;;;;5054060;28;20376;-81
2021/06/20 00:23:12;;;;;;;27.27;9.35;;;20.90;99.90;;;;;;5056756;28;20083;-81
2021/06/20 00:25:38;;;;;;;26.92;10.02;;;20.90;99.90;;;;;;5057740;28;20045;-80
2021/06/20 00:28:05;;;;;;;24.75;8.90;;;20.80;99.90;;;;;;5058046;28;20037;-80
2021/06/20 00:30:32;;;;;;;29.02;10.88;;;20.80;99.90;;;;;;5058295;28;20037;-81
2021/06/20 00:32:59;;;;;;;25.85;9.43;;;20.80;99.90;;;;;;5040108;28;20037;-81
2021/06/20 00:35:25;;;;;;;27.80;10.45;;;20.80;99.90;;;;;;5058229;28;20488;-81
2021/06/20 00:37:51;;;;;;;27.92;10.00;;;20.80;99.90;;;;;;5057476;28;20048;-81
2021/06/20 00:40:19;;;;;;;29.98;10.25;;;20.80;99.90;;;;;;5058230;28;20056;-81
2021/06/20 00:42:45;;;;;;;31.77;10.10;;;20.70;99.90;;;;;;5057474;28;20047;-81
2021/06/20 00:45:14;;;;;;;24.52;9.93;;;20.70;99.90;;;;;;5057772;28;20048;-81
2021/06/20 00:47:40;;;;;;;26.15;9.85;;;20.70;99.90;;;;;;5057689;28;20563;-80
2021/06/20 00:50:08;;;;;;;27.13;9.52;;;20.70;99.90;;;;;;5057411;28;20033;-81
2021/06/20 00:52:35;;;;;;;27.02;9.25;;;20.70;99.90;;;;;;5057513;28;20076;-81
2021/06/20 00:55:02;;;;;;;27.67;10.30;;;20.70;99.90;;;;;;5057438;28;20049;-81
2021/06/20 00:57:28;;;;;;;26.88;9.68;;;20.70;99.90;;;;;;5057075;28;20055;-81
2021/06/20 00:59:54;;;;;;;21.98;9.73;;;20.70;99.90;;;;;;5057685;28;20056;-81
2021/06/20 01:02:21;;;;;;;25.55;9.45;;;20.70;99.90;;;;;;5057346;28;20392;-81
2021/06/20 01:04:49;;;;;;;21.92;9.00;;;20.70;99.90;;;;;;5057117;28;20045;-81
2021/06/20 01:07:21;;;;;;;22.70;9.07;;;20.70;99.90;;;;;;5057364;28;20075;-81
2021/06/20 01:09:48;;;;;;;22.92;9.75;;;20.70;99.90;;;;;;5056656;28;20061;-81
2021/06/20 01:12:15;;;;;;;20.55;9.05;;;20.60;99.90;;;;;;5057187;28;20029;-81
2021/06/20 01:14:42;;;;;;;22.15;9.60;;;20.60;99.90;;;;;;5057163;28;20041;-80
2021/06/20 01:17:08;;;;;;;27.77;9.27;;;20.60;99.90;;;;;;5056747;28;20090;-81
2021/06/20 01:19:37;;;;;;;25.65;10.48;;;20.50;99.90;;;;;;5056811;28;20124;-80
2021/06/20 01:22:21;;;;;;;22.02;9.43;;;20.50;99.90;;;;;;5056738;28;20087;-81
2021/06/20 01:24:54;;;;;;;24.15;9.75;;;20.40;99.90;;;;;;5057352;28;20053;-81
2021/06/20 01:27:28;;;;;;;23.13;9.27;;;20.40;99.90;;;;;;5056806;28;20029;-81
2021/06/20 01:29:54;;;;;;;25.27;10.05;;;20.50;99.90;;;;;;5056739;28;20068;-81
2021/06/20 01:32:20;;;;;;;36.90;10.05;;;20.40;99.90;;;;;;5056318;28;20118;-81
2021/06/20 01:34:47;;;;;;;24.92;9.50;;;20.50;99.90;;;;;;5056431;28;20044;-81
2021/06/20 01:37:15;;;;;;;20.85;8.65;;;20.50;99.90;;;;;;5056505;28;20032;-80
2021/06/20 01:39:41;;;;;;;18.08;8.93;;;20.40;99.90;;;;;;5057148;28;20037;-81
2021/06/20 01:42:07;;;;;;;26.70;10.23;;;20.40;99.90;;;;;;5038604;28;20041;-81
2021/06/20 01:44:55;;;;;;;23.60;9.40;;;20.50;99.90;;;;;;5056666;28;20044;-80
2021/06/20 01:47:25;;;;;;;26.08;9.68;;;20.40;99.90;;;;;;5056577;28;20060;-81
2021/06/20 01:49:52;;;;;;;25.42;10.07;;;20.40;99.90;;;;;;5056460;28;20041;-81
2021/06/20 01:52:22;;;;;;;26.48;9.65;;;20.40;99.90;;;;;;5056074;28;20574;-80
2021/06/20 01:54:52;;;;;;;22.48;9.63;;;20.30;99.90;;;;;;5056163;28;20087;-80
2021/06/20 01:57:23;;;;;;;22.42;9.70;;;20.40;99.90;;;;;;5055928;28;20041;-80
2021/06/20 01:59:53;;;;;;;22.92;9.15;;;20.40;99.90;;;;;;5056374;28;20056;-80
2021/06/20 02:02:21;;;;;;;24.48;9.07;;;20.40;99.90;;;;;;5056138;28;20037;-80
2021/06/20 02:04:47;;;;;;;23.23;9.45;;;20.40;99.90;;;;;;5056614;28;20051;-80
2021/06/20 02:07:14;;;;;;;25.70;10.27;;;20.40;99.90;;;;;;5056131;28;20041;-79
2021/06/20 02:09:40;;;;;;;26.00;9.82;;;20.40;99.90;;;;;;5056474;28;20053;-80
2021/06/20 02:12:08;;;;;;;25.50;10.32;;;20.40;99.90;;;;;;5056245;28;20055;-79
2021/06/20 02:14:35;;;;;;;19.90;10.00;;;20.40;99.90;;;;;;5056492;28;20566;-79
2021/06/20 02:17:16;;;;;;;24.65;9.13;;;20.40;99.90;;;;;;5056570;28;20072;-80
2021/06/20 02:19:41;;;;;;;18.77;9.48;;;20.40;99.90;;;;;;5056638;28;20080;-80
2021/06/20 02:22:07;;;;;;;23.17;10.10;;;20.50;99.90;;;;;;5056080;28;20076;-80
2021/06/20 02:24:33;;;;;;;22.77;9.73;;;20.50;99.90;;;;;;5055666;28;20037;-80
2021/06/20 02:26:59;;;;;;;22.35;9.75;;;20.60;99.90;;;;;;5055874;28;20036;-80
2021/06/20 02:29:24;;;;;;;26.90;10.02;;;20.60;99.90;;;;;;5038066;28;20033;-80
2021/06/20 02:31:50;;;;;;;26.92;9.60;;;20.70;99.90;;;;;;5055960;28;20032;-80
2021/06/20 02:34:16;;;;;;;19.15;9.20;;;20.70;99.90;;;;;;5055619;28;20037;-80
2021/06/20 02:36:42;;;;;;;24.48;8.98;;;20.80;99.90;;;;;;5055620;28;20045;-80
2021/06/20 02:39:08;;;;;;;25.80;9.25;;;20.80;99.90;;;;;;5055449;28;20044;-80
2021/06/20 02:41:33;;;;;;;21.55;9.57;;;20.70;99.90;;;;;;5055282;28;20033;-80
2021/06/20 02:43:59;;;;;;;26.42;10.82;;;20.80;99.90;;;;;;5055159;28;20483;-80
2021/06/20 02:46:25;;;;;;;26.92;9.50;;;20.70;99.90;;;;;;5054878;28;20471;-80
2021/06/20 02:48:51;;;;;;;21.90;9.43;;;20.70;99.90;;;;;;5055564;28;20044;-80
2021/06/20 02:51:17;;;;;;;25.27;9.30;;;20.80;99.90;;;;;;5055328;28;20412;-80
2021/06/20 02:53:43;;;;;;;23.35;9.88;;;20.80;99.90;;;;;;5055573;28;20041;-80
2021/06/20 02:56:09;;;;;;;21.83;9.65;;;20.80;99.90;;;;;;5055226;28;20040;-80
2021/06/20 02:58:35;;;;;;;23.85;9.07;;;20.80;99.90;;;;;;5055457;28;20139;-80
2021/06/20 03:01:00;;;;;;;28.10;10.20;;;20.80;99.90;;;;;;5054095;28;20029;-80
2021/06/20 03:03:26;;;;;;;26.63;10.18;;;20.80;99.90;;;;;;5055339;28;20037;-80
2021/06/20 03:05:52;;;;;;;26.17;9.23;;;20.80;99.90;;;;;;5055399;28;20392;-80
2021/06/20 03:08:18;;;;;;;27.88;10.02;;;20.90;99.90;;;;;;5055131;28;20120;-81
2021/06/20 03:10:44;;;;;;;25.25;9.23;;;20.80;99.90;;;;;;5055112;28;20124;-80
2021/06/20 03:13:10;;;;;;;24.10;10.07;;;20.80;99.90;;;;;;5037294;28;20041;-81
2021/06/20 03:15:38;;;;;;;21.33;9.50;;;20.80;99.90;;;;;;5055209;28;20044;-80
2021/06/20 03:18:05;;;;;;;23.10;9.20;;;20.70;99.90;;;;;;5037192;28;20040;-80
2021/06/20 03:20:31;;;;;;;23.60;8.85;;;20.70;99.90;;;;;;5055083;28;20045;-80
2021/06/20 03:22:56;;;;;;;24.70;9.13;;;20.80;99.90;;;;;;5054754;28;20141;-80
2021/06/20 03:25:22;;;;;;;21.23;9.00;;;20.80;99.90;;;;;;5054674;28;20045;-80
2021/06/20 03:27:48;;;;;;;22.40;9.05;;;20.90;99.90;;;;;;5054897;28;20037;-80
2021/06/20 03:30:15;;;;;;;24.55;8.80;;;20.90;99.90;;;;;;5053669;28;20037;-80
2021/06/20 03:32:40;;;;;;;25.15;9.30;;;21.00;99.90;;;;;;5037136;28;20391;-80
2021/06/20 03:35:07;;;;;;;22.10;9.23;;;21.00;99.90;;;;;;5054176;28;20132;-80
2021/06/20 03:37:33;;;;;;;18.95;8.63;;;21.00;99.90;;;;;;5055206;28;20041;-80
2021/06/20 03:39:59;;;;;;;23.20;9.15;;;20.90;99.90;;;;;;5055135;28;20238;-80
2021/06/20 03:42:24;;;;;;;25.13;8.60;;;21.00;99.90;;;;;;5054343;28;20437;-80
2021/06/20 03:44:50;;;;;;;31.27;9.55;;;21.00;99.90;;;;;;5054980;28;20047;-80
2021/06/20 03:47:16;;;;;;;22.58;7.90;;;21.00;99.90;;;;;;5054465;28;20035;-80
2021/06/20 03:49:42;;;;;;;25.60;8.90;;;21.00;99.90;;;;;;5054756;28;20028;-80
2021/06/20 03:52:08;;;;;;;23.38;8.32;;;21.00;99.90;;;;;;5054490;28;20029;-80
2021/06/20 03:54:34;;;;;;;27.42;9.60;;;21.00;99.90;;;;;;5054634;28;20131;-80
2021/06/20 03:57:00;;;;;;;31.33;9.02;;;21.00;99.90;;;;;;5054062;28;20049;-80
2021/06/20 03:59:26;;;;;;;26.25;8.68;;;21.00;99.90;;;;;;5036931;28;20048;-80
2021/06/20 04:01:53;;;;;;;28.55;9.15;;;21.10;99.90;;;;;;5054450;28;20445;-80
2021/06/20 04:04:21;;;;;;;22.90;8.80;;;21.00;99.90;;;;;;5054542;28;20565;-80
2021/06/20 04:06:47;;;;;;;29.20;8.85;;;21.00;99.90;;;;;;5054591;28;20040;-80
2021/06/20 04:09:13;;;;;;;22.23;8.48;;;21.00;99.90;;;;;;5054205;28;20055;-80
2021/06/20 04:11:39;;;;;;;28.20;9.27;;;21.00;99.90;;;;;;5036027;28;20123;-80
2021/06/20 04:14:05;;;;;;;27.58;8.38;;;21.00;99.90;;;;;;5054036;28;20607;-80
2021/06/20 04:16:30;;;;;;;27.65;8.93;;;21.10;99.90;;;;;;5053848;28;20120;-80
2021/06/20 04:18:57;;;;;;;23.88;8.50;;;21.10;99.90;;;;;;5053960;28;20124;-80
2021/06/20 04:21:24;;;;;;;25.40;9.98;;;21.10;99.90;;;;;;5054193;28;20561;-80
2021/06/20 04:23:49;;;;;;;26.88;9.30;;;21.10;99.90;;;;;;5052814;28;20132;-79
2021/06/20 04:26:15;;;;;;;31.35;8.90;;;21.00;99.90;;;;;;5053865;28;20134;-79
2021/06/20 04:28:43;;;;;;;29.98;9.02;;;21.00;99.90;;;;;;5054075;28;20399;-80
2021/06/20 04:31:09;;;;;;;25.10;7.85;;;21.00;99.90;;;;;;5054137;28;20487;-80
2021/06/20 04:33:35;;;;;;;25.50;8.43;;;21.00;99.90;;;;;;5053999;28;20144;-80
2021/06/20 04:36:01;;;;;;;27.70;9.27;;;21.00;99.90;;;;;;5054017;28;20561;-80
2021/06/20 04:38:27;;;;;;;24.42;8.27;;;21.00;99.90;;;;;;5053704;28;20055;-80
2021/06/20 04:41:00;;;;;;;23.35;8.30;;;21.00;99.90;;;;;;5053769;28;20412;-79
2021/06/20 04:43:56;;;;;;;28.45;8.98;;;21.00;99.90;;;;;;5053806;28;20037;-80
2021/06/20 04:46:37;;;;;;;25.25;8.43;;;21.10;99.90;;;;;;5054172;28;20067;-80
2021/06/20 04:49:07;;;;;;;;;;;21.10;99.90;;;;;;5054367;28;20484;-80
2021/06/20 04:51:38;;;;;;;31.53;8.77;;;21.10;99.90;;;;;;5053551;28;19909;-79
2021/06/20 04:54:04;;;;;;;24.88;8.10;;;21.10;99.90;;;;;;5036641;28;20033;-80
2021/06/20 04:56:31;;;;;;;22.15;8.30;;;21.10;99.90;;;;;;5053586;28;20096;-80
2021/06/20 04:58:57;;;;;;;24.17;8.52;;;21.10;99.90;;;;;;5053958;28;20037;-80
2021/06/20 05:01:23;;;;;;;24.30;8.35;;;21.00;99.90;;;;;;5053450;28;20060;-80
2021/06/20 05:03:49;;;;;;;26.70;9.02;;;21.10;99.90;;;;;;5053970;28;20048;-80
2021/06/20 05:06:15;;;;;;;27.08;8.50;;;21.10;99.90;;;;;;5053619;28;20044;-80
2021/06/20 05:08:41;;;;;;;26.00;8.75;;;21.20;99.90;;;;;;5055554;28;20135;-80
2021/06/20 05:11:07;;;;;;;21.23;7.47;;;21.10;99.90;;;;;;5057369;28;20131;-80
2021/06/20 05:13:33;;;;;;;23.63;8.30;;;21.10;99.90;;;;;;5039817;28;20590;-80
2021/06/20 05:15:59;;;;;;;26.85;8.93;;;21.20;99.90;;;;;;5057334;28;20041;-80
2021/06/20 05:18:25;;;;;;;22.30;7.70;;;21.20;99.90;;;;;;5057159;28;20549;-80
2021/06/20 05:20:50;;;;;;;26.15;8.25;;;21.30;99.90;;;;;;5057135;28;20079;-80
2021/06/20 05:23:18;;;;;;;27.65;7.75;;;21.30;99.90;;;;;;5057160;28;20171;-80
2021/06/20 05:25:44;;;;;;;29.25;8.25;;;21.30;99.90;;;;;;5057503;28;20044;-79
2021/06/20 05:28:09;;;;;;;29.27;8.95;;;21.40;99.90;;;;;;5056986;28;20156;-80
2021/06/20 05:30:35;;;;;;;29.25;8.52;;;21.50;99.90;;;;;;5057160;28;20486;-80
2021/06/20 05:33:01;;;;;;;30.55;8.32;;;21.50;99.90;;;;;;5057193;28;20124;-80
2021/06/20 05:35:28;;;;;;;32.65;8.57;;;21.60;99.90;;;;;;5057313;28;20132;-80
2021/06/20 05:37:53;;;;;;;28.63;8.30;;;21.70;99.90;;;;;;5057109;28;20546;-80
2021/06/20 05:40:19;;;;;;;21.60;7.72;;;21.80;99.90;;;;;;5056562;28;20037;-80
2021/06/20 05:42:45;;;;;;;26.60;7.95;;;21.80;99.90;;;;;;5056945;28;20086;-80
2021/06/20 05:45:12;;;;;;;28.55;8.75;;;21.70;99.90;;;;;;5057234;28;20385;-80
2021/06/20 05:47:37;;;;;;;25.38;8.73;;;21.70;99.90;;;;;;5056763;28;20084;-80
2021/06/20 05:50:04;;;;;;;28.42;8.23;;;21.70;99.90;;;;;;5056852;28;20041;-80
2021/06/20 05:52:30;;;;;;;26.23;8.13;;;21.60;99.90;;;;;;5056693;28;20500;-80
2021/06/20 05:54:56;;;;;;;31.67;8.27;;;21.60;99.90;;;;;;5056194;28;20043;-80
2021/06/20 05:57:22;;;;;;;26.52;8.95;;;21.60;99.90;;;;;;5056558;28;20037;-80
2021/06/20 05:59:48;;;;;;;24.13;7.95;;;21.60;99.90;;;;;;5056683;28;20094;-80
2021/06/20 06:02:14;;;;;;;23.92;8.70;;;21.50;99.90;;;;;;5056314;28;20041;-81
2021/06/20 06:04:44;;;;;;;24.23;8.13;;;21.50;99.90;;;;;;5056967;28;20392;-81
2021/06/20 06:07:10;;;;;;;26.65;8.45;;;21.50;99.90;;;;;;5056860;28;20060;-80
2021/06/20 06:09:36;;;;;;;31.92;8.65;;;21.50;99.90;;;;;;5056625;28;20056;-80
2021/06/20 06:12:03;;;;;;;24.05;9.18;;;21.60;99.90;;;;;;5055718;28;20061;-80
2021/06/20 06:14:29;;;;;;;28.95;9.20;;;21.60;99.90;;;;;;5055857;28;20041;-80
2021/06/20 06:16:55;;;;;;;32.67;9.05;;;21.60;99.90;;;;;;5056296;28;20128;-80
2021/06/20 06:19:21;;;;;;;28.50;8.55;;;21.60;99.90;;;;;;5056151;28;20051;-80
2021/06/20 06:21:46;;;;;;;32.40;8.48;;;21.50;99.90;;;;;;5055894;28;20638;-80
2021/06/20 06:24:12;;;;;;;23.95;7.55;;;21.50;99.90;;;;;;5055914;28;20098;-80
2021/06/20 06:26:39;;;;;;;33.63;9.70;;;21.50;99.90;;;;;;5055841;28;20377;-81
2021/06/20 06:29:05;;;;;;;30.05;8.07;;;21.50;99.90;;;;;;5055860;28;20043;-81
2021/06/20 06:31:31;;;;;;;28.92;9.02;;;21.60;99.90;;;;;;5055982;28;20048;-81
2021/06/20 06:33:58;;;;;;;35.00;9.85;;;21.40;99.90;;;;;;5055870;28;20518;-81
2021/06/20 06:36:23;;;;;;;36.10;11.48;;;20.90;99.90;;;;;;5055760;28;20072;-81
2021/06/20 06:38:50;;;;;;;33.45;12.02;;;20.80;99.90;;;;;;5055854;28;20080;-82
2021/06/20 06:41:18;;;;;;;38.53;11.65;;;20.70;99.90;;;;;;5055421;28;20029;-81
2021/06/20 06:43:45;;;;;;;37.45;11.85;;;20.60;99.90;;;;;;5037660;28;20036;-81
2021/06/20 06:46:11;;;;;;;38.75;12.40;;;20.60;99.90;;;;;;5055733;28;20041;-81
2021/06/20 06:48:37;;;;;;;43.22;13.07;;;20.50;99.90;;;;;;5055090;28;20428;-81
2021/06/20 06:51:03;;;;;;;34.00;12.25;;;20.60;99.90;;;;;;5055266;28;20037;-81
2021/06/20 06:53:29;;;;;;;35.33;13.35;;;20.60;99.90;;;;;;5037414;28;20087;-82
2021/06/20 06:55:55;;;;;;;41.17;14.20;;;20.50;99.90;;;;;;5054833;28;20084;-82
2021/06/20 06:58:21;;;;;;;38.85;14.93;;;20.50;99.90;;;;;;5055190;28;20033;-81
2021/06/20 07:00:47;;;;;;;32.25;13.20;;;20.50;99.90;;;;;;5037061;28;20036;-81
2021/06/20 07:03:14;;;;;;;37.83;13.40;;;20.50;99.90;;;;;;5047186;28;20029;-80
2021/06/20 07:05:40;;;;;;;35.55;12.50;;;20.40;99.90;;;;;;5016529;28;20041;-80
2021/06/20 07:08:08;;;;;;;41.90;13.57;;;20.30;99.90;;;;;;5016561;28;20054;-80
2021/06/20 07:10:34;;;;;;;36.42;14.65;;;20.20;99.90;;;;;;5017864;28;20374;-81
2021/06/20 07:13:01;;;;;;;29.02;13.55;;;20.20;99.90;;;;;;5054546;28;20200;-80
2021/06/20 07:15:27;;;;;;;36.15;13.93;;;20.20;99.90;;;;;;5036744;28;20140;-79
2021/06/20 07:17:53;;;;;;;37.88;13.40;;;20.20;99.90;;;;;;5054661;28;20073;-79
2021/06/20 07:20:19;;;;;;;35.15;12.07;;;20.20;99.90;;;;;;5055115;28;20102;-79
2021/06/20 07:22:47;;;;;;;35.10;12.95;;;20.20;99.90;;;;;;5036834;28;20045;-79
2021/06/20 07:25:16;;;;;;;34.03;12.52;;;20.30;99.90;;;;;;5054948;28;20032;-78
2021/06/20 07:27:42;;;;;;;31.27;11.60;;;20.40;99.90;;;;;;5054656;28;20095;-79
2021/06/20 07:30:14;;;;;;;27.67;10.98;;;20.60;99.90;;;;;;5054385;28;20041;-77
2021/06/20 07:32:41;;;;;;;34.17;11.02;;;20.80;99.90;;;;;;5054273;28;20033;-79
2021/06/20 07:35:08;;;;;;;28.63;10.18;;;21.10;99.90;;;;;;5052888;28;20049;-81
2021/06/20 07:37:35;;;;;;;28.98;10.68;;;21.00;99.90;;;;;;5034895;28;20029;-79
2021/06/20 07:40:01;;;;;;;30.40;10.25;;;21.00;99.90;;;;;;5052414;28;20060;-79
2021/06/20 07:42:27;;;;;;;27.33;9.95;;;21.20;99.90;;;;;;5036303;28;20029;-80
2021/06/20 07:44:53;;;;;;;26.77;10.38;;;21.00;99.90;;;;;;5053635;28;20048;-79
2021/06/20 07:47:18;;;;;;;27.80;9.63;;;21.10;99.90;;;;;;5036448;28;20074;-80
2021/06/20 07:49:44;;;;;;;27.25;9.63;;;21.20;99.90;;;;;;5036481;28;20029;-80
2021/06/20 07:52:10;;;;;;;25.50;8.82;;;21.20;99.90;;;;;;5053465;28;20075;-80
2021/06/20 07:54:37;;;;;;;25.92;10.63;;;21.20;99.90;;;;;;5054237;28;20037;-79
2021/06/20 07:57:03;;;;;;;25.35;10.10;;;21.10;99.90;;;;;;5054221;28;20077;-79
2021/06/20 07:59:29;;;;;;;30.83;11.35;;;20.90;99.90;;;;;;5054064;28;20041;-76
2021/06/20 08:01:55;;;;;;;24.38;10.30;;;20.80;99.90;;;;;;5054059;28;20571;-76
2021/06/20 08:04:20;;;;;;;31.02;11.20;;;20.70;99.90;;;;;;5053818;28;20065;-76
2021/06/20 08:06:46;;;;;;;32.38;12.40;;;20.70;99.90;;;;;;5054136;28;20076;-76
2021/06/20 08:09:12;;;;;;;31.23;12.15;;;20.60;99.90;;;;;;5036471;28;20091;-80
2021/06/20 08:11:38;;;;;;;30.85;12.38;;;20.50;99.90;;;;;;5053927;28;20037;-81
2021/06/20 08:14:05;;;;;;;33.95;11.65;;;20.50;99.90;;;;;;5054710;28;20041;-80
2021/06/20 08:16:31;;;;;;;28.58;11.45;;;20.40;99.90;;;;;;5054418;28;20037;-80
2021/06/20 08:18:57;;;;;;;39.33;12.73;;;20.30;99.90;;;;;;5054475;28;20054;-85
2021/06/20 08:21:26;;;;;;;29.00;14.45;;;20.10;99.90;;;;;;5036167;28;20124;-86
2021/06/20 08:23:52;;;;;;;34.50;13.40;;;20.10;99.90;;;;;;5035522;28;20037;-86
2021/06/20 08:26:18;;;;;;;43.38;15.30;;;20.00;99.90;;;;;;5035917;28;20550;-85
2021/06/20 08:28:44;;;;;;;33.80;16.58;;;20.10;99.90;;;;;;5036445;28;20039;-86
2021/06/20 08:31:10;;;;;;;41.28;16.67;;;20.10;99.90;;;;;;5036380;28;20059;-85
2021/06/20 08:33:37;;;;;;;36.33;16.13;;;20.00;99.90;;;;;;5035940;28;20480;-85
2021/06/20 08:36:03;;;;;;;32.88;15.93;;;20.00;99.90;;;;;;5054048;28;20545;-83
2021/06/20 08:38:29;;;;;;;34.40;15.73;;;20.10;99.90;;;;;;5035934;28;20033;-84
2021/06/20 08:40:56;;;;;;;30.92;14.10;;;20.20;99.90;;;;;;5035805;28;20043;-86
2021/06/20 08:43:23;;;;;;;28.63;15.55;;;20.30;99.90;;;;;;5037278;28;20029;-84
2021/06/20 08:45:54;;;;;;;29.35;15.20;;;20.60;99.90;;;;;;5057814;28;20044;-82
2021/06/20 08:48:20;;;;;;;35.08;17.13;;;20.90;99.90;;;;;;5039828;28;20094;-86
2021/06/20 08:50:49;;;;;;;37.03;16.83;;;21.40;99.90;;;;;;5057903;28;20086;-81
2021/06/20 08:53:20;;;;;;;22.15;11.07;;;21.80;99.90;;;;;;5057587;28;20358;-82
2021/06/20 08:55:46;;;;;;;;;;;21.10;99.90;;;;;;5039934;28;20045;-83
2021/06/20 08:58:27;;;;;;;26.45;13.00;;;20.70;99.90;;;;;;5056524;28;19970;-83
2021/06/20 09:00:55;;;;;;;28.55;14.05;;;20.60;99.90;;;;;;5039907;28;20156;-82
2021/06/20 09:03:21;;;;;;;31.38;15.82;;;20.50;99.90;;;;;;5038648;28;20042;-84
2021/06/20 09:06:00;;;;;;;33.17;15.27;;;20.50;99.90;;;;;;5037905;28;20257;-82
2021/06/20 09:08:27;;;;;;;41.45;14.77;;;20.30;99.90;;;;;;5037856;28;20072;-81
2021/06/20 09:22:12;;;;;;;27.67;12.93;;;20.30;99.90;;;;;;5129467;27;20349;-82
2021/06/20 09:24:40;;;;;;;31.80;15.00;;;19.90;99.90;;;;;;5107735;28;20130;-80
2021/06/20 09:27:06;;;;;;;38.78;16.77;;;20.00;99.90;;;;;;5100145;28;20079;-80
2021/06/20 09:29:39;;;;;;;36.70;17.92;;;20.10;99.90;;;;;;5097889;28;20059;-80
2021/06/20 09:32:09;;;;;;;29.83;14.18;;;20.20;99.90;;;;;;5091311;28;20038;-81
2021/06/20 09:34:41;;;;;;;33.65;13.82;;;20.10;99.90;;;;;;5094858;28;20387;-83
2021/06/20 09:37:07;;;;;;;29.08;14.65;;;20.00;99.90;;;;;;5099963;28;20055;-80
2021/06/20 09:39:33;;;;;;;31.02;14.95;;;19.90;99.90;;;;;;5098832;28;20071;-80
2021/06/20 09:42:25;;;;;;;34.00;15.23;;;20.00;99.90;;;;;;5111512;28;20035;-80
2021/06/20 09:44:57;;;;;;;24.23;11.63;;;20.00;99.90;;;;;;5108347;28;20508;-80
2021/06/20 09:47:25;;;;;;;26.80;13.68;;;19.80;99.90;;;;;;5111437;28;20044;-80
2021/06/20 09:49:53;;;;;;;26.63;12.68;;;19.90;99.90;;;;;;5111315;28;20097;-80
2021/06/20 09:52:45;;;;;;;29.08;15.45;;;20.00;99.90;;;;;;5111374;28;20120;-80
2021/06/20 09:55:13;;;;;;;29.83;13.75;;;20.20;99.90;;;;;;5107393;28;20123;-80
2021/06/20 09:57:43;;;;;;;31.38;15.38;;;20.20;99.90;;;;;;5108239;28;20026;-81
2021/06/20 10:00:11;;;;;;;30.33;16.02;;;20.20;99.90;;;;;;5109185;28;20130;-79
2021/06/20 10:02:39;;;;;;;35.53;16.10;;;20.30;99.90;;;;;;5109155;28;20040;-80
2021/06/20 10:05:10;;;;;;;25.95;15.45;;;20.10;99.90;;;;;;5111248;28;20040;-79
2021/06/20 10:07:38;;;;;;;34.25;14.02;;;20.20;99.90;;;;;;5111210;28;20119;-81
2021/06/20 10:10:08;;;;;;;32.63;14.80;;;20.10;99.90;;;;;;5110774;28;20070;-82
2021/06/20 10:12:34;;;;;;;32.83;15.38;;;20.10;99.90;;;;;;5111013;28;20032;-82
2021/06/20 10:15:02;;;;;;;31.02;14.32;;;20.20;99.90;;;;;;5111156;28;20043;-81
2021/06/20 10:17:31;;;;;;;29.48;14.77;;;20.30;99.90;;;;;;5111133;28;20036;-81
2021/06/20 10:20:06;;;;;;;25.73;15.63;;;20.30;99.90;;;;;;5110707;28;20109;-80
2021/06/20 10:22:38;;;;;;;33.33;17.42;;;20.20;99.90;;;;;;5099665;28;20390;-80
2021/06/20 10:25:07;;;;;;;29.73;15.93;;;20.40;99.90;;;;;;5096223;28;20050;-80
2021/06/20 10:27:38;;;;;;;43.95;17.15;;;20.30;99.90;;;;;;5097245;28;20127;-80
2021/06/20 10:30:10;;;;;;;30.80;17.17;;;20.20;99.90;;;;;;5097296;28;20044;-82
2021/06/20 10:32:47;;;;;;;30.40;15.40;;;20.10;99.90;;;;;;5095444;28;20036;-84
2021/06/20 10:35:21;;;;;;;31.17;14.57;;;20.10;99.90;;;;;;5097571;28;20032;-87
2021/06/20 10:37:49;;;;;;;27.88;14.30;;;20.00;99.90;;;;;;5096366;28;20043;-87
2021/06/20 10:40:29;;;;;;;31.40;13.77;;;20.00;99.90;;;;;;5095853;28;20057;-86
2021/06/20 10:42:58;;;;;;;22.15;8.57;;;20.00;99.90;;;;;;5097077;28;20040;-87
2021/06/20 10:45:36;;;;;;;23.40;9.18;;;19.60;99.90;;;;;;5097029;28;20118;-87
2021/06/20 10:48:13;;;;;;;26.55;8.05;;;19.20;99.90;;;;;;5095175;28;20039;-87
2021/06/20 10:50:41;;;;;;;27.20;8.45;;;19.10;99.90;;;;;;5095511;28;20040;-88
2021/06/20 10:53:07;;;;;;;28.38;9.55;;;18.90;99.90;;;;;;5095526;28;20028;-86
2021/06/20 10:55:41;;;;;;;26.33;7.95;;;19.00;99.90;;;;;;5095514;28;20039;-87
2021/06/20 10:58:16;;;;;;;25.05;9.10;;;18.90;99.90;;;;;;5095278;28;20032;-86
2021/06/20 11:00:47;;;;;;;24.08;8.68;;;18.40;99.90;;;;;;5095472;28;20036;-84
2021/06/20 11:03:28;;;;;;;16.95;6.60;;;18.30;99.90;;;;;;5096701;28;20491;-83
2021/06/20 11:05:57;;;;;;;19.70;6.70;;;18.20;99.90;;;;;;5095120;28;20043;-83
2021/06/20 11:08:35;;;;;;;25.63;8.88;;;18.10;99.90;;;;;;5096639;28;20089;-84
2021/06/20 11:11:31;;;;;;;20.50;7.60;;;18.30;99.90;;;;;;5095020;28;20132;-84
2021/06/20 11:13:57;;;;;;;27.20;7.30;;;18.40;99.90;;;;;;5094689;28;20059;-85
2021/06/20 11:16:50;;;;;;;25.55;7.90;;;18.80;99.90;;;;;;5096326;28;20043;-86
2021/06/20 11:19:22;;;;;;;22.33;7.85;;;18.90;99.90;;;;;;5096128;28;20032;-86
2021/06/20 11:22:08;;;;;;;25.35;7.35;;;19.00;99.90;;;;;;5096117;28;20044;-84
2021/06/20 11:24:51;;;;;;;18.70;7.18;;;18.70;99.90;;;;;;5095275;28;20043;-84
2021/06/20 11:27:31;;;;;;;17.55;7.03;;;18.90;99.90;;;;;;5094883;28;20040;-85
2021/06/20 11:29:59;;;;;;;20.48;6.35;;;19.20;99.90;;;;;;5094840;28;20051;-88
2021/06/20 11:32:37;;;;;;;26.52;8.93;;;19.10;99.90;;;;;;5094760;28;20032;-88
2021/06/20 11:35:12;;;;;;;20.63;7.75;;;19.70;99.90;;;;;;5094584;28;20040;-83
2021/06/20 11:37:48;;;;;;;17.98;5.97;;;20.40;99.90;;;;;;5094039;28;20032;-84
2021/06/20 11:40:53;;;;;;;21.88;6.57;;;20.20;99.90;;;;;;5095007;28;20581;-87
2021/06/20 11:43:19;;;;;;;15.45;6.00;;;20.00;99.90;;;;;;5036355;28;20101;-85
2021/06/20 11:45:44;;;;;;;20.38;6.68;;;20.40;99.90;;;;;;5053201;28;20633;-81
2021/06/20 11:48:10;;;;;;;17.38;5.95;;;20.60;99.90;;;;;;5078841;28;20031;-85
2021/06/20 11:50:37;;;;;;;22.45;6.32;;;20.20;99.90;;;;;;5095969;28;20055;-84
2021/06/20 11:53:08;;;;;;;21.92;7.00;;;20.50;99.90;;;;;;5096098;28;20040;-85
2021/06/20 11:55:39;;;;;;;18.77;5.85;;;20.80;99.90;;;;;;5094711;28;20123;-84
2021/06/20 11:58:10;;;;;;;19.70;5.68;;;21.00;99.90;;;;;;5094023;28;20043;-84
2021/06/20 12:00:38;;;;;;;21.02;5.88;;;20.70;99.90;;;;;;5082945;28;20433;-84
2021/06/20 12:03:06;;;;;;;21.55;6.32;;;21.00;99.90;;;;;;5095257;28;20032;-85
2021/06/20 12:05:43;;;;;;;23.40;6.45;;;21.30;99.90;;;;;;5094781;28;20043;-85
2021/06/20 12:08:09;;;;;;;14.07;5.32;;;21.70;99.90;;;;;;5093093;28;20043;-84
2021/06/20 12:10:38;;;;;;;20.35;5.57;;;21.20;99.90;;;;;;5094042;28;20048;-84
2021/06/20 12:13:06;;;;;;;14.75;5.20;;;21.30;99.90;;;;;;5094035;28;20092;-84
2021/06/20 12:15:35;;;;;;;18.38;5.00;;;21.40;99.90;;;;;;5091742;28;20043;-84
2021/06/20 12:18:15;;;;;;;17.33;4.93;;;20.70;99.90;;;;;;5094947;28;20038;-84
2021/06/20 12:20:46;;;;;;;24.13;5.43;;;20.50;99.90;;;;;;5093818;28;20059;-83
2021/06/20 12:23:26;;;;;;;17.98;5.28;;;20.20;99.90;;;;;;5092978;28;20043;-83
2021/06/20 12:25:53;;;;;;;15.53;4.60;;;20.30;99.90;;;;;;5093888;28;20040;-83
2021/06/20 12:28:20;;;;;;;12.50;5.22;;;20.30;99.90;;;;;;5092706;28;20036;-78
2021/06/20 12:30:51;;;;;;;12.88;4.10;;;20.30;99.90;;;;;;5094045;28;20054;-78
2021/06/20 12:33:19;;;;;;;13.60;4.18;;;20.00;99.90;;;;;;5093792;28;20032;-77
2021/06/20 12:35:59;;;;;;;14.43;3.63;;;20.00;99.90;;;;;;5095274;28;20089;-77
2021/06/20 12:38:26;;;;;;;16.00;4.63;;;20.00;99.90;;;;;;5095216;28;20039;-80
2021/06/20 12:40:53;;;;;;;14.52;5.00;;;20.20;99.90;;;;;;5093329;28;20052;-81
2021/06/20 12:43:21;;;;;;;19.13;4.80;;;20.20;99.90;;;;;;5093117;28;20032;-78
2021/06/20 12:46:03;;;;;;;14.13;4.50;;;20.00;99.90;;;;;;5094355;28;20036;-78
2021/06/20 12:48:38;;;;;;;15.60;4.07;;;20.10;99.90;;;;;;5093169;28;20517;-78
2021/06/20 12:51:07;;;;;;;12.55;3.80;;;20.10;99.90;;;;;;5093089;28;20135;-78